createdAt,value
2018-07-19T00:01:18.172Z,98713.38
2018-07-19T00:03:48.331Z,98716.04
2018-07-19T00:06:18.894Z,98724.67
2018-07-19T00:08:49.447Z,98723.36
2018-07-19T00:11:19.958Z,98725.03
2018-07-19T00:13:50.835Z,98732.72
2018-07-19T00:16:22.541Z,98737.37
2018-07-19T00:18:53.524Z,98737.55
2018-07-19T00:21:23.932Z,98737.37
2018-07-19T00:23:54.393Z,98736.71
2018-07-19T00:26:25.649Z,98736.05
2018-07-19T00:28:56.215Z,98734.91
2018-07-19T00:31:26.750Z,98739.24
2018-07-19T00:33:57.888Z,98736.08
2018-07-19T00:36:29.336Z,98732.45
2018-07-19T00:38:59.976Z,98734.08
2018-07-19T00:41:30.552Z,98730.10
2018-07-19T00:44:01.112Z,98730.42
2018-07-19T00:46:31.718Z,98723.48
2018-07-19T00:49:02.324Z,98722.65
2018-07-19T00:51:32.933Z,98722.82
2018-07-19T00:54:04.672Z,98726.80
2018-07-19T00:56:35.589Z,98721.81
2018-07-19T00:59:06.242Z,98720.49
2018-07-19T01:01:36.690Z,98717.36
2018-07-19T01:04:07.610Z,98714.19
2018-07-19T01:06:38.160Z,98720.31
2018-07-19T01:09:11.730Z,98716.52
2018-07-19T01:11:43.066Z,98717.49
2018-07-19T01:14:13.668Z,98723.62
2018-07-19T01:16:44.554Z,98720.80
2018-07-19T01:19:15.157Z,98723.44
2018-07-19T01:21:45.702Z,98723.27
2018-07-19T01:24:16.269Z,98723.92
2018-07-19T01:26:46.878Z,98729.39
2018-07-19T01:29:17.085Z,98729.39
2018-07-19T01:31:48.407Z,98725.23
2018-07-19T01:34:18.973Z,98722.23
2018-07-19T01:36:49.725Z,98721.73
2018-07-19T01:39:20.352Z,98722.08
2018-07-19T01:42:33.340Z,98725.49
2018-07-19T01:45:05.164Z,98721.52
2018-07-19T01:47:36.515Z,98726.14
2018-07-19T01:50:08.812Z,98716.38
2018-07-19T01:52:39.662Z,98722.64
2018-07-19T01:55:10.356Z,98723.97
2018-07-19T01:57:40.891Z,98716.37
2018-07-19T02:00:11.603Z,98720.98
2018-07-19T02:02:42.272Z,98716.15
2018-07-19T02:05:13.727Z,98716.61
2018-07-19T02:07:44.761Z,98720.91
2018-07-19T02:10:15.568Z,98728.31
2018-07-19T02:12:45.987Z,98725.17
2018-07-19T02:15:16.521Z,98734.06
2018-07-19T02:17:47.198Z,98732.03
2018-07-19T02:20:17.750Z,98736.98
2018-07-19T02:22:48.342Z,98733.77
2018-07-19T02:25:18.962Z,98736.39
2018-07-19T02:27:50.071Z,98739.69
2018-07-19T02:30:20.533Z,98724.83
2018-07-19T02:32:51.050Z,98724.31
2018-07-19T02:35:21.500Z,98731.92
2018-07-19T02:37:52.202Z,98728.28
2018-07-19T02:40:22.974Z,98729.11
2018-07-19T02:42:53.489Z,98722.64
2018-07-19T02:45:24.006Z,98718.98
2018-07-19T02:47:54.603Z,98715.17
2018-07-19T02:50:25.603Z,98712.37
2018-07-19T02:52:56.921Z,98720.03
2018-07-19T02:55:27.381Z,98715.53
2018-07-19T02:57:57.795Z,98712.75
2018-07-19T03:00:28.373Z,98711.61
2018-07-19T03:02:59.029Z,98711.16
2018-07-19T03:05:29.721Z,98715.94
2018-07-19T03:08:00.042Z,98715.39
2018-07-19T03:10:30.527Z,98716.56
2018-07-19T03:13:01.575Z,98716.88
2018-07-19T03:15:32.810Z,98714.86
2018-07-19T03:18:03.306Z,98706.73
2018-07-19T03:20:34.002Z,98705.06
2018-07-19T03:23:04.623Z,98702.02
2018-07-19T03:25:35.318Z,98691.49
2018-07-19T03:28:05.836Z,98696.78
2018-07-19T03:30:37.017Z,98698.42
2018-07-19T03:33:08.576Z,98696.65
2018-07-19T03:35:39.132Z,98704.30
2018-07-19T03:38:09.647Z,98700.24
2018-07-19T03:40:40.161Z,98696.89
2018-07-19T03:43:11.468Z,98695.89
2018-07-19T03:45:41.950Z,98693.90
2018-07-19T03:48:12.576Z,98696.13
2018-07-19T03:50:44.028Z,98697.39
2018-07-19T03:53:15.213Z,98691.92
2018-07-19T03:55:45.882Z,98701.26
2018-07-19T03:58:16.563Z,98701.61
2018-07-19T04:00:47.328Z,98703.80
2018-07-19T04:03:17.915Z,98705.31
2018-07-19T04:05:48.422Z,98707.19
2018-07-19T04:08:19.467Z,98702.80
2018-07-19T04:10:50.713Z,98697.59
2018-07-19T04:13:21.678Z,98705.06
2018-07-19T04:15:52.208Z,98710.22
2018-07-19T04:18:22.826Z,98713.37
2018-07-19T04:20:52.762Z,98711.59
2018-07-19T04:23:23.311Z,98715.66
2018-07-19T04:25:53.882Z,98708.99
2018-07-19T04:28:24.436Z,98709.59
2018-07-19T04:30:56.055Z,98719.00
2018-07-19T04:33:26.802Z,98716.73
2018-07-19T04:35:57.365Z,98714.11
2018-07-19T04:38:27.973Z,98707.52
2018-07-19T04:40:58.518Z,98708.19
2018-07-19T04:43:29.319Z,98703.92
2018-07-19T04:45:59.866Z,98710.84
2018-07-19T04:48:30.632Z,98703.59
2018-07-19T04:51:02.418Z,98707.91
2018-07-19T04:53:33.053Z,98705.28
2018-07-19T04:56:03.465Z,98709.09
2018-07-19T04:58:34.223Z,98703.50
2018-07-19T05:01:04.928Z,98697.70
2018-07-19T05:03:35.633Z,98689.16
2018-07-19T05:06:06.304Z,98692.81
2018-07-19T05:08:37.744Z,98688.35
2018-07-19T05:11:08.809Z,98684.41
2018-07-19T05:13:39.013Z,98687.56
2018-07-19T05:16:09.903Z,98690.31
2018-07-19T05:18:40.737Z,98686.00
2018-07-19T05:21:11.434Z,98683.05
2018-07-19T05:23:42.066Z,98687.37
2018-07-19T05:26:13.585Z,98686.89
2018-07-19T05:28:46.200Z,98689.03
2018-07-19T05:31:16.944Z,98677.73
2018-07-19T05:33:48.503Z,98671.05
2018-07-19T05:36:19.278Z,98668.72
2018-07-19T05:38:50.940Z,98672.38
2018-07-19T05:41:21.473Z,98667.22
2018-07-19T05:43:52.384Z,98668.50
2018-07-19T05:46:24.748Z,98668.14
2018-07-19T05:48:55.305Z,98669.55
2018-07-19T05:51:26.331Z,98665.53
2018-07-19T05:53:56.915Z,98669.73
2018-07-19T05:56:27.670Z,98667.70
2018-07-19T05:58:58.327Z,98670.25
2018-07-19T06:01:28.880Z,98677.09
2018-07-19T06:04:00.868Z,98675.91
2018-07-19T06:06:32.285Z,98672.97
2018-07-19T06:09:02.481Z,98673.25
2018-07-19T06:11:33.256Z,98672.13
2018-07-19T06:14:06.105Z,98680.03
2018-07-19T06:16:36.853Z,98677.66
2018-07-19T06:19:08.031Z,98673.09
2018-07-19T06:21:40.076Z,98674.57
2018-07-19T06:24:11.480Z,98672.39
2018-07-19T06:26:42.566Z,98677.63
2018-07-19T06:29:13.652Z,98680.23
2018-07-19T06:31:44.587Z,98689.86
2018-07-19T06:34:16.053Z,98694.60
2018-07-19T06:36:46.925Z,98687.39
2018-07-19T06:39:18.734Z,98694.83
2018-07-19T06:41:50.089Z,98692.71
2018-07-19T06:44:20.554Z,98691.39
2018-07-19T06:46:51.690Z,98694.78
2018-07-19T06:49:22.746Z,98698.24
2018-07-19T06:51:54.031Z,98694.73
2018-07-19T06:54:24.986Z,98700.77
2018-07-19T06:57:01.317Z,98699.56
2018-07-19T06:59:34.591Z,98707.20
2018-07-19T07:02:06.937Z,98710.56
2018-07-19T07:04:38.392Z,98712.11
2018-07-19T07:07:09.707Z,98710.48
2018-07-19T07:09:43.753Z,98711.52
2018-07-19T07:12:18.352Z,98707.72
2018-07-19T07:14:53.084Z,98712.39
2018-07-19T07:17:24.055Z,98712.53
2018-07-19T07:19:58.587Z,98714.77
2018-07-19T07:22:29.901Z,98713.35
2018-07-19T07:25:01.832Z,98702.75
2018-07-19T07:27:34.061Z,98708.58
2018-07-19T07:30:06.112Z,98706.89
2018-07-19T07:32:36.968Z,98706.55
2018-07-19T07:35:09.263Z,98693.32
2018-07-19T07:37:40.631Z,98691.56
2018-07-19T07:40:11.096Z,98692.70
2018-07-19T07:42:44.042Z,98690.92
2018-07-19T07:45:16.012Z,98694.88
2018-07-19T07:47:47.837Z,98691.69
2018-07-19T07:50:19.322Z,98682.74
2018-07-19T07:52:49.645Z,98680.61
2018-07-19T07:55:20.791Z,98687.08
2018-07-19T07:57:52.511Z,98687.27
2018-07-19T08:00:24.639Z,98683.91
2018-07-19T08:02:56.464Z,98679.83
2018-07-19T08:05:27.576Z,98678.48
2018-07-19T08:07:58.523Z,98672.81
2018-07-19T08:10:29.691Z,98677.75
2018-07-19T08:13:00.521Z,98681.36
2018-07-19T08:15:31.765Z,98680.13
2018-07-19T08:18:03.645Z,98677.79
2018-07-19T08:20:35.828Z,98681.95
2018-07-19T08:23:08.080Z,98682.16
2018-07-19T08:25:39.529Z,98681.29
2018-07-19T08:28:10.580Z,98682.33
2018-07-19T08:30:43.696Z,98676.63
2018-07-19T08:33:14.754Z,98684.28
2018-07-19T08:35:48.211Z,98683.48
2018-07-19T08:38:19.183Z,98679.97
2018-07-19T08:40:51.810Z,98679.12
2018-07-19T08:43:23.819Z,98681.41
2018-07-19T08:45:55.149Z,98685.34
2018-07-19T08:48:26.507Z,98677.86
2018-07-19T08:50:58.579Z,98683.46
2018-07-19T08:53:30.851Z,98685.59
2018-07-19T08:58:31.577Z,98691.59
2018-07-19T09:01:02.489Z,98685.05
2018-07-19T09:03:33.983Z,98681.64
2018-07-19T09:06:06.028Z,98685.52
2018-07-19T09:08:45.456Z,98674.98
2018-07-19T09:11:18.748Z,98672.05
2018-07-19T09:13:52.603Z,98669.61
2018-07-19T09:16:23.860Z,98667.52
2018-07-19T09:18:55.132Z,98665.97
2018-07-19T09:21:31.082Z,98669.30
2018-07-19T09:24:04.559Z,98666.47
2018-07-19T09:26:36.229Z,98670.64
2018-07-19T09:29:09.547Z,98670.59
2018-07-19T09:31:40.940Z,98665.50
2018-07-19T09:34:12.210Z,98654.91
2018-07-19T09:36:44.047Z,98658.72
2018-07-19T09:39:15.641Z,98653.64
2018-07-19T09:41:48.870Z,98667.29
2018-07-19T09:44:20.122Z,98656.78
2018-07-19T09:46:53.159Z,98659.14
2018-07-19T09:49:24.625Z,98653.47
2018-07-19T09:51:57.100Z,98655.16
2018-07-19T09:54:44.460Z,98660.27
2018-07-19T09:57:15.959Z,98657.91
2018-07-19T09:59:47.768Z,98648.62
2018-07-19T10:02:20.493Z,98655.53
2018-07-19T10:04:52.585Z,98654.42
2018-07-19T10:07:26.576Z,98653.70
2018-07-19T10:09:58.891Z,98652.13
2018-07-19T10:12:33.562Z,98647.19
2018-07-19T10:15:07.032Z,98658.41
2018-07-19T10:17:40.109Z,98665.39
2018-07-19T10:20:13.332Z,98661.78
2018-07-19T10:22:46.102Z,98658.20
2018-07-19T10:25:19.652Z,98653.25
2018-07-19T10:27:51.085Z,98654.91
2018-07-19T10:30:23.098Z,98662.92
2018-07-19T10:32:55.562Z,98662.20
2018-07-19T10:35:26.780Z,98651.40
2018-07-19T10:37:57.906Z,98658.50
2018-07-19T10:40:30.081Z,98661.84
2018-07-19T10:43:01.501Z,98659.05
2018-07-19T10:45:33.402Z,98657.67
2018-07-19T10:48:09.768Z,98656.09
2018-07-19T10:50:40.995Z,98657.98
2018-07-19T10:53:11.594Z,98656.02
2018-07-19T10:55:42.435Z,98657.11
2018-07-19T10:58:59.376Z,98653.17
2018-07-19T11:01:33.397Z,98647.06
2018-07-19T11:04:04.656Z,98648.06
2018-07-19T11:06:36.352Z,98649.24
2018-07-19T11:09:11.344Z,98648.66
2018-07-19T11:11:43.664Z,98645.75
2018-07-19T11:14:15.971Z,98656.98
2018-07-19T11:16:48.530Z,98653.16
2018-07-19T11:19:19.790Z,98642.84
2018-07-19T11:21:50.391Z,98648.50
2018-07-19T11:24:25.523Z,98646.69
2018-07-19T11:26:56.527Z,98642.55
2018-07-19T11:29:27.856Z,98652.95
2018-07-19T11:31:59.600Z,98643.05
2018-07-19T11:34:31.237Z,98640.02
2018-07-19T11:37:04.249Z,98647.36
2018-07-19T11:39:34.960Z,98637.64
2018-07-19T11:42:05.926Z,98633.00
2018-07-19T11:44:37.692Z,98633.73
2018-07-19T11:47:12.186Z,98634.56
2018-07-19T11:49:44.623Z,98633.70
2018-07-19T11:52:16.114Z,98627.58
2018-07-19T11:54:49.096Z,98631.52
2018-07-19T11:57:24.396Z,98627.77
2018-07-19T11:59:56.384Z,98625.09
2018-07-19T12:02:29.177Z,98623.81
2018-07-19T12:05:00.975Z,98621.92
2018-07-19T12:07:32.603Z,98610.66
2018-07-19T12:10:04.742Z,98612.42
2018-07-19T12:12:35.831Z,98615.84
2018-07-19T12:15:07.042Z,98610.73
2018-07-19T12:17:37.877Z,98616.23
2018-07-19T12:20:10.153Z,98614.91
2018-07-19T12:22:41.765Z,98614.41
2018-07-19T12:25:12.828Z,98616.86
2018-07-19T12:27:43.574Z,98609.17
2018-07-19T12:30:15.661Z,98618.58
2018-07-19T12:32:47.337Z,98612.22
2018-07-19T12:35:20.553Z,98606.28
2018-07-19T12:37:53.005Z,98612.27
2018-07-19T12:40:27.283Z,98613.27
2018-07-19T12:42:58.427Z,98612.31
2018-07-19T12:45:31.749Z,98606.04
2018-07-19T12:48:03.133Z,98608.73
2018-07-19T12:50:35.208Z,98600.72
2018-07-19T12:53:08.731Z,98596.39
2018-07-19T12:55:40.330Z,98602.08
2018-07-19T12:58:11.623Z,98591.23
2018-07-19T13:00:42.813Z,98603.00
2018-07-19T13:03:13.922Z,98596.33
2018-07-19T13:05:44.999Z,98600.44
2018-07-19T13:08:16.273Z,98596.86
2018-07-19T13:10:49.062Z,98598.83
2018-07-19T13:13:21.702Z,98592.58
2018-07-19T13:15:53.594Z,98587.91
2018-07-19T13:18:24.387Z,98587.77
2018-07-19T13:20:57.019Z,98587.23
2018-07-19T13:23:29.584Z,98590.13
2018-07-19T13:26:04.008Z,98590.91
2018-07-19T13:28:36.258Z,98583.95
2018-07-19T13:31:12.600Z,98579.86
2018-07-19T13:33:43.838Z,98579.80
2018-07-19T13:36:14.881Z,98579.70
2018-07-19T13:38:47.209Z,98579.86
2018-07-19T13:41:18.720Z,98586.72
2018-07-19T13:49:22.966Z,98581.56
2018-07-19T13:51:53.895Z,98570.09
2018-07-19T13:54:43.342Z,98567.11
2018-07-19T13:57:14.526Z,98576.66
2018-07-19T13:59:45.957Z,98576.63
2018-07-19T14:02:16.732Z,98567.36
2018-07-19T14:04:47.895Z,98569.27
2018-07-19T14:07:18.610Z,98565.31
2018-07-19T14:09:49.642Z,98566.23
2018-07-19T14:12:21.050Z,98561.36
2018-07-19T14:14:51.666Z,98567.40
2018-07-19T14:17:22.319Z,98566.02
2018-07-19T14:19:53.154Z,98561.17
2018-07-19T14:22:23.642Z,98561.61
2018-07-19T14:24:54.191Z,98556.52
2018-07-19T14:27:24.805Z,98562.48
2018-07-19T14:29:55.950Z,98556.66
2018-07-19T14:32:28.138Z,98558.95
2018-07-19T14:34:59.173Z,98551.44
2018-07-19T14:37:29.909Z,98559.87
2018-07-19T14:40:00.598Z,98547.41
2018-07-19T14:42:31.117Z,98547.64
2018-07-19T14:45:01.796Z,98549.30
2018-07-19T14:47:32.642Z,98550.55
2018-07-19T14:50:04.585Z,98554.38
2018-07-19T14:52:35.352Z,98557.58
2018-07-19T14:55:06.799Z,98552.37
2018-07-19T14:57:37.551Z,98554.27
2018-07-19T15:00:09.088Z,98564.41
2018-07-19T15:02:40.198Z,98573.02
2018-07-19T15:05:11.436Z,98560.20
2018-07-19T15:07:44.018Z,98561.77
2018-07-19T15:10:14.955Z,98566.39
2018-07-19T15:12:45.762Z,98562.36
2018-07-19T15:15:16.620Z,98569.16
2018-07-19T15:17:47.472Z,98565.34
2018-07-19T15:20:18.067Z,98566.25
2018-07-19T15:22:49.067Z,98556.81
2018-07-19T15:25:22.033Z,98554.83
2018-07-19T15:27:54.017Z,98551.03
2018-07-19T15:30:25.775Z,98551.23
2018-07-19T15:32:56.541Z,98553.41
2018-07-19T15:35:28.364Z,98546.03
2018-07-19T15:37:59.125Z,98544.79
2018-07-19T15:40:31.170Z,98551.78
2018-07-19T15:43:04.245Z,98550.05
2018-07-19T15:45:37.619Z,98539.41
2018-07-19T15:48:09.558Z,98535.55
2018-07-19T15:50:41.036Z,98530.82
2018-07-19T15:53:12.215Z,98530.52
2018-07-19T15:55:43.050Z,98537.98
2018-07-19T15:58:14.544Z,98536.23
2018-07-19T16:00:46.557Z,98538.88
2018-07-19T16:03:17.252Z,98533.39
2018-07-19T16:05:47.774Z,98529.87
2018-07-19T16:08:18.993Z,98528.09
2018-07-19T16:10:50.041Z,98533.27
2018-07-19T16:13:20.797Z,98532.17
2018-07-19T16:15:51.617Z,98527.70
2018-07-19T16:18:22.612Z,98533.88
2018-07-19T16:20:53.631Z,98530.84
2018-07-19T16:23:24.401Z,98526.28
2018-07-19T16:25:54.455Z,98530.42
2018-07-19T16:28:25.577Z,98525.97
2018-07-19T16:30:56.379Z,98527.91
2018-07-19T16:33:26.993Z,98527.81
2018-07-19T16:35:58.931Z,98527.36
2018-07-19T16:38:34.435Z,98527.52
2018-07-19T16:41:05.772Z,98526.69
2018-07-19T16:43:37.705Z,98533.96
2018-07-19T16:46:08.805Z,98527.99
2018-07-19T16:48:39.361Z,98531.11
2018-07-19T16:51:10.395Z,98530.94
2018-07-19T16:53:43.120Z,98529.84
2018-07-19T16:56:13.731Z,98531.77
2018-07-19T16:58:44.405Z,98530.45
2018-07-19T17:01:15.422Z,98535.09
2018-07-19T17:03:45.497Z,98537.67
2018-07-19T17:06:16.684Z,98532.58
2018-07-19T17:08:47.266Z,98535.98
2018-07-19T17:11:18.349Z,98535.58
2018-07-19T17:13:51.381Z,98537.74
2018-07-19T17:16:22.977Z,98533.98
2018-07-19T17:18:53.657Z,98535.83
2018-07-19T17:21:24.528Z,98536.98
2018-07-19T17:23:55.102Z,98534.75
2018-07-19T17:26:25.800Z,98535.16
2018-07-19T17:28:56.533Z,98529.14
2018-07-19T17:31:28.346Z,98541.41
2018-07-19T17:33:59.198Z,98534.53
2018-07-19T17:36:29.333Z,98531.59
2018-07-19T17:39:00.373Z,98536.29
2018-07-19T17:41:32.237Z,98533.30
2018-07-19T17:44:03.065Z,98538.55
2018-07-19T17:46:34.377Z,98538.36
2018-07-19T17:49:07.076Z,98538.73
2018-07-19T17:51:39.408Z,98544.83
2018-07-19T17:54:10.433Z,98549.48
2018-07-19T17:56:41.541Z,98549.88
2018-07-19T17:59:12.885Z,98549.94
2018-07-19T18:01:43.927Z,98545.55
2018-07-19T18:04:15.655Z,98548.59
2018-07-19T18:06:47.578Z,98552.23
2018-07-19T18:09:18.960Z,98556.06
2018-07-19T18:11:49.823Z,98555.59
2018-07-19T18:14:20.852Z,98556.25
2018-07-19T18:16:52.261Z,98559.17
2018-07-19T18:19:23.863Z,98555.50
2018-07-19T18:21:54.755Z,98554.80
2018-07-19T18:24:26.267Z,98554.48
2018-07-19T18:26:58.632Z,98552.03
2018-07-19T18:29:30.217Z,98551.95
2018-07-19T18:32:00.391Z,98551.17
2018-07-19T18:34:31.267Z,98553.27
2018-07-19T18:37:02.210Z,98557.83
2018-07-19T18:39:33.588Z,98555.89
2018-07-19T18:42:05.316Z,98552.13
2018-07-19T18:44:38.346Z,98554.50
2018-07-19T18:47:09.839Z,98559.30
2018-07-19T18:49:42.628Z,98562.38
2018-07-19T18:52:14.307Z,98568.59
2018-07-19T18:54:45.882Z,98568.23
2018-07-19T18:57:17.952Z,98566.55
2018-07-19T18:59:52.580Z,98565.86
2018-07-19T19:02:24.306Z,98567.17
2018-07-19T19:04:56.272Z,98574.58
2018-07-19T19:07:29.076Z,98574.22
2018-07-19T19:10:00.703Z,98575.39
2018-07-19T19:12:32.431Z,98576.25
2018-07-19T19:15:05.335Z,98582.41
2018-07-19T19:17:39.353Z,98581.81
2018-07-19T19:20:11.929Z,98590.03
2018-07-19T19:22:44.108Z,98584.69
2018-07-19T19:25:17.108Z,98600.03
2018-07-19T19:27:49.416Z,98592.21
2018-07-19T19:30:26.006Z,98601.25
2018-07-19T19:32:57.563Z,98603.77
2018-07-19T19:35:30.860Z,98599.14
2018-07-19T19:38:07.931Z,98603.47
2018-07-19T19:40:41.167Z,98609.69
2018-07-19T19:43:13.975Z,98614.50
2018-07-19T19:45:48.082Z,98613.39
2018-07-19T19:48:20.845Z,98619.16
2018-07-19T19:50:53.613Z,98617.62
2018-07-19T19:53:28.405Z,98620.59
2018-07-19T19:56:01.401Z,98622.59
2018-07-19T19:58:33.709Z,98622.39
2018-07-19T20:01:05.526Z,98624.84
2018-07-19T20:03:37.959Z,98622.93
2018-07-19T20:06:11.712Z,98622.39
2018-07-19T20:08:45.494Z,98624.67
2018-07-19T20:11:19.214Z,98625.05
2018-07-19T20:13:52.685Z,98626.83
2018-07-19T20:16:24.578Z,98633.48
2018-07-19T20:18:56.307Z,98635.55
2018-07-19T20:21:27.927Z,98633.16
2018-07-19T20:24:00.956Z,98638.63
2018-07-19T20:26:33.418Z,98635.27
2018-07-19T20:29:04.786Z,98644.20
2018-07-19T20:31:36.852Z,98639.34
2018-07-19T20:34:09.727Z,98644.97
2018-07-19T20:36:41.473Z,98648.41
2018-07-19T20:39:13.659Z,98647.70
2018-07-19T20:41:46.807Z,98646.38
2018-07-19T20:44:19.095Z,98648.84
2018-07-19T20:46:51.154Z,98648.47
2018-07-19T20:49:22.842Z,98653.10
2018-07-19T20:51:55.087Z,98655.20
2018-07-19T20:54:27.842Z,98664.73
2018-07-19T20:57:00.165Z,98657.94
2018-07-19T20:59:31.239Z,98657.53
2018-07-19T21:02:03.410Z,98660.73
2018-07-19T21:04:36.112Z,98659.46
2018-07-19T21:07:07.004Z,98665.36
2018-07-19T21:09:38.384Z,98665.86
2018-07-19T21:12:13.658Z,98666.72
2018-07-19T21:14:47.475Z,98669.38
2018-07-19T21:17:19.134Z,98665.10
2018-07-19T21:19:50.317Z,98671.38
2018-07-19T21:22:21.274Z,98669.91
2018-07-19T21:24:52.495Z,98670.91
2018-07-19T21:27:24.790Z,98675.91
2018-07-19T21:29:55.701Z,98676.66
2018-07-19T21:32:26.401Z,98674.51
2018-07-19T21:34:57.235Z,98674.39
2018-07-19T21:37:28.186Z,98679.58
2018-07-19T21:39:58.917Z,98679.70
2018-07-19T21:42:29.811Z,98682.62
2018-07-19T21:45:02.398Z,98687.03
2018-07-19T21:47:34.740Z,98689.36
2018-07-19T21:50:05.881Z,98690.78
2018-07-19T21:52:44.944Z,98693.14
2018-07-19T21:55:16.020Z,98695.63
2018-07-19T21:57:47.052Z,98693.89
2018-07-19T22:00:19.648Z,98698.41
2018-07-19T22:02:50.840Z,98694.80
2018-07-19T22:05:21.938Z,98696.43
2018-07-19T22:07:52.689Z,98698.94
2018-07-19T22:10:25.356Z,98693.81
2018-07-19T22:12:57.035Z,98703.77
2018-07-19T22:15:28.470Z,98696.59
2018-07-19T22:18:00.740Z,98695.90
2018-07-19T22:20:31.564Z,98697.08
2018-07-19T22:23:02.717Z,98693.23
2018-07-19T22:25:34.208Z,98698.13
2018-07-19T22:28:05.544Z,98695.63
2018-07-19T22:30:36.438Z,98695.20
2018-07-19T22:33:06.659Z,98697.48
2018-07-19T22:35:38.780Z,98697.20
2018-07-19T22:38:11.510Z,98702.88
2018-07-19T22:40:42.212Z,98696.42
2018-07-19T22:43:13.309Z,98702.38
2018-07-19T22:45:44.059Z,98700.22
2018-07-19T22:48:15.164Z,98697.23
2018-07-19T22:50:46.097Z,98702.10
2018-07-19T22:53:17.435Z,98706.20
2018-07-19T22:55:48.525Z,98704.75
2018-07-19T22:58:19.349Z,98708.22
2018-07-19T23:00:50.193Z,98711.91
2018-07-19T23:03:21.213Z,98715.06
2018-07-19T23:05:52.164Z,98714.59
2018-07-19T23:08:23.115Z,98718.23
2018-07-19T23:10:53.978Z,98717.58
2018-07-19T23:13:25.584Z,98723.09
2018-07-19T23:15:57.192Z,98714.63
2018-07-19T23:18:28.022Z,98719.14
2018-07-19T23:20:58.790Z,98723.93
2018-07-19T23:23:29.497Z,98723.00
2018-07-19T23:26:00.617Z,98717.22
2018-07-19T23:28:31.583Z,98723.39
2018-07-19T23:31:02.313Z,98728.06
2018-07-19T23:33:34.265Z,98735.51
2018-07-19T23:36:07.321Z,98735.69
2018-07-19T23:38:42.496Z,98737.72
2018-07-19T23:41:20.222Z,98737.08
2018-07-19T23:43:55.153Z,98727.61
2018-07-19T23:46:31.633Z,98731.41
2018-07-19T23:49:08.256Z,98733.41
2018-07-19T23:51:39.701Z,98732.75
2018-07-19T23:54:10.589Z,98733.25
2018-07-19T23:56:41.919Z,98725.47
2018-07-19T23:59:13.682Z,98723.83
